<?xml version="1.0" encoding="UTF-8"?>
<gpx xmlns="http://www.topografix.com/GPX/1/1" xmlns:xsi="http://www.w3.org/2001/XMLSchema-instance" version="1.1" xsi:schemaLocation="http://www.topografix.com/GPX/1/1 http://www.topografix.com/GPX/1/1/gpx.xsd">
  <metadata>
    <name>Loveland Lake to Lake Triathlon 2022</name>
  </metadata>
  <trk>
    <name>Loveland Lake to Lake Triathlon 2022</name>
    <trkseg>
      <trkpt lat="40.421686" lon="-105.092595">
        <ele>1532.43735</ele>
        <time>2024-06-22T06:30:00.000Z</time>
      </trkpt>
      <trkpt lat="40.421695" lon="-105.092594">
        <ele>1532.437334</ele>
        <time>2024-06-22T06:30:00.000Z</time>
      </trkpt>
      <trkpt lat="40.421697" lon="-105.094449">
        <ele>1532.615449</ele>
        <time>2024-06-22T06:30:16.000Z</time>
      </trkpt>
      <trkpt lat="40.421696" lon="-105.095108">
        <ele>1532.782481</ele>
        <time>2024-06-22T06:30:22.000Z</time>
      </trkpt>
      <trkpt lat="40.421711" lon="-105.09599">
        <ele>1533.013951</ele>
        <time>2024-06-22T06:30:29.000Z</time>
      </trkpt>
      <trkpt lat="40.421714" lon="-105.096812">
        <ele>1534.120279</ele>
        <time>2024-06-22T06:30:36.000Z</time>
      </trkpt>
      <trkpt lat="40.421713" lon="-105.09803">
        <ele>1536.063401</ele>
        <time>2024-06-22T06:30:46.000Z</time>
      </trkpt>
      <trkpt lat="40.421729" lon="-105.098984">
        <ele>1537.163298</ele>
        <time>2024-06-22T06:30:54.000Z</time>
      </trkpt>
      <trkpt lat="40.421724" lon="-105.099672">
        <ele>1537.666367</ele>
        <time>2024-06-22T06:31:00.000Z</time>
      </trkpt>
      <trkpt lat="40.421735" lon="-105.099778">
        <ele>1537.756134</ele>
        <time>2024-06-22T06:31:01.000Z</time>
      </trkpt>
      <trkpt lat="40.42174" lon="-105.100712">
        <ele>1538.440259</ele>
        <time>2024-06-22T06:31:09.000Z</time>
      </trkpt>
      <trkpt lat="40.421736" lon="-105.102197">
        <ele>1538.583467</ele>
        <time>2024-06-22T06:31:22.000Z</time>
      </trkpt>
      <trkpt lat="40.421754" lon="-105.102981">
        <ele>1538.602298</ele>
        <time>2024-06-22T06:31:29.000Z</time>
      </trkpt>
      <trkpt lat="40.421774" lon="-105.104952">
        <ele>1540.100197</ele>
        <time>2024-06-22T06:31:46.000Z</time>
      </trkpt>
      <trkpt lat="40.421781" lon="-105.105031">
        <ele>1540.167692</ele>
        <time>2024-06-22T06:31:47.000Z</time>
      </trkpt>
      <trkpt lat="40.421811" lon="-105.10779">
        <ele>1544.403087</ele>
        <time>2024-06-22T06:32:10.000Z</time>
      </trkpt>
      <trkpt lat="40.421823" lon="-105.109472">
        <ele>1548.291785</ele>
        <time>2024-06-22T06:32:24.000Z</time>
      </trkpt>
      <trkpt lat="40.421848" lon="-105.110398">
        <ele>1550.439699</ele>
        <time>2024-06-22T06:32:32.000Z</time>
      </trkpt>
      <trkpt lat="40.421856" lon="-105.110892">
        <ele>1551.4689</ele>
        <time>2024-06-22T06:32:36.000Z</time>
      </trkpt>
      <trkpt lat="40.421843" lon="-105.111167">
        <ele>1552.022771</ele>
        <time>2024-06-22T06:32:38.000Z</time>
      </trkpt>
      <trkpt lat="40.421852" lon="-105.111555">
        <ele>1552.843255</ele>
        <time>2024-06-22T06:32:41.000Z</time>
      </trkpt>
      <trkpt lat="40.421857" lon="-105.111601">
        <ele>1552.927979</ele>
        <time>2024-06-22T06:32:41.000Z</time>
      </trkpt>
      <trkpt lat="40.421868" lon="-105.112302">
        <ele>1554.39121</ele>
        <time>2024-06-22T06:32:47.000Z</time>
      </trkpt>
      <trkpt lat="40.421866" lon="-105.112739">
        <ele>1555.232597</ele>
        <time>2024-06-22T06:32:51.000Z</time>
      </trkpt>
      <trkpt lat="40.421874" lon="-105.112813">
        <ele>1555.344665</ele>
        <time>2024-06-22T06:32:52.000Z</time>
      </trkpt>
      <trkpt lat="40.421873" lon="-105.113374">
        <ele>1556.109853</ele>
        <time>2024-06-22T06:32:57.000Z</time>
      </trkpt>
      <trkpt lat="40.421891" lon="-105.113855">
        <ele>1556.796178</ele>
        <time>2024-06-22T06:33:01.000Z</time>
      </trkpt>
      <trkpt lat="40.421905" lon="-105.115646">
        <ele>1559.187146</ele>
        <time>2024-06-22T06:33:16.000Z</time>
      </trkpt>
      <trkpt lat="40.4219" lon="-105.116183">
        <ele>1559.8914</ele>
        <time>2024-06-22T06:33:21.000Z</time>
      </trkpt>
      <trkpt lat="40.421895" lon="-105.116346">
        <ele>1560.092057</ele>
        <time>2024-06-22T06:33:22.000Z</time>
      </trkpt>
      <trkpt lat="40.42191" lon="-105.116521">
        <ele>1560.318294</ele>
        <time>2024-06-22T06:33:23.000Z</time>
      </trkpt>
      <trkpt lat="40.421899" lon="-105.117124">
        <ele>1561.093168</ele>
        <time>2024-06-22T06:33:28.000Z</time>
      </trkpt>
      <trkpt lat="40.421864" lon="-105.118693">
        <ele>1563.068131</ele>
        <time>2024-06-22T06:33:41.000Z</time>
      </trkpt>
      <trkpt lat="40.42186" lon="-105.118821">
        <ele>1563.209581</ele>
        <time>2024-06-22T06:33:42.000Z</time>
      </trkpt>
      <trkpt lat="40.421826" lon="-105.120516">
        <ele>1565.099414</ele>
        <time>2024-06-22T06:33:56.000Z</time>
      </trkpt>
      <trkpt lat="40.421764" lon="-105.125309">
        <ele>1568.780964</ele>
        <time>2024-06-22T06:34:37.000Z</time>
      </trkpt>
      <trkpt lat="40.421861" lon="-105.125972">
        <ele>1568.996306</ele>
        <time>2024-06-22T06:34:43.000Z</time>
      </trkpt>
      <trkpt lat="40.421978" lon="-105.126299">
        <ele>1569.111899</ele>
        <time>2024-06-22T06:34:46.000Z</time>
      </trkpt>
      <trkpt lat="40.422027" lon="-105.126424">
        <ele>1569.163903</ele>
        <time>2024-06-22T06:34:47.000Z</time>
      </trkpt>
      <trkpt lat="40.421584" lon="-105.126701">
        <ele>1569.103976</ele>
        <time>2024-06-22T06:34:52.000Z</time>
      </trkpt>
      <trkpt lat="40.421129" lon="-105.12673">
        <ele>1568.744893</ele>
        <time>2024-06-22T06:34:57.000Z</time>
      </trkpt>
      <trkpt lat="40.419633" lon="-105.126674">
        <ele>1567.400694</ele>
        <time>2024-06-22T06:35:14.000Z</time>
      </trkpt>
      <trkpt lat="40.419392" lon="-105.126554">
        <ele>1567.076276</ele>
        <time>2024-06-22T06:35:17.000Z</time>
      </trkpt>
      <trkpt lat="40.418718" lon="-105.125768">
        <ele>1565.934444</ele>
        <time>2024-06-22T06:35:27.000Z</time>
      </trkpt>
      <trkpt lat="40.418239" lon="-105.125186">
        <ele>1565.023586</ele>
        <time>2024-06-22T06:35:34.000Z</time>
      </trkpt>
      <trkpt lat="40.418004" lon="-105.125111">
        <ele>1564.646785</ele>
        <time>2024-06-22T06:35:37.000Z</time>
      </trkpt>
      <trkpt lat="40.417859" lon="-105.125045">
        <ele>1564.434247</ele>
        <time>2024-06-22T06:35:39.000Z</time>
      </trkpt>
      <trkpt lat="40.416078" lon="-105.125022">
        <ele>1562.223767</ele>
        <time>2024-06-22T06:35:59.000Z</time>
      </trkpt>
      <trkpt lat="40.415699" lon="-105.12516">
        <ele>1561.872403</ele>
        <time>2024-06-22T06:36:03.000Z</time>
      </trkpt>
      <trkpt lat="40.415023" lon="-105.125619">
        <ele>1561.404494</ele>
        <time>2024-06-22T06:36:11.000Z</time>
      </trkpt>
      <trkpt lat="40.414629" lon="-105.125666">
        <ele>1561.714526</ele>
        <time>2024-06-22T06:36:15.000Z</time>
      </trkpt>
      <trkpt lat="40.414558" lon="-105.125661">
        <ele>1561.781659</ele>
        <time>2024-06-22T06:36:16.000Z</time>
      </trkpt>
      <trkpt lat="40.414535" lon="-105.126629">
        <ele>1562.370101</ele>
        <time>2024-06-22T06:36:24.000Z</time>
      </trkpt>
      <trkpt lat="40.414545" lon="-105.127188">
        <ele>1562.718129</ele>
        <time>2024-06-22T06:36:29.000Z</time>
      </trkpt>
      <trkpt lat="40.414724" lon="-105.127657">
        <ele>1562.589717</ele>
        <time>2024-06-22T06:36:33.000Z</time>
      </trkpt>
      <trkpt lat="40.415017" lon="-105.127935">
        <ele>1562.444161</ele>
        <time>2024-06-22T06:36:37.000Z</time>
      </trkpt>
      <trkpt lat="40.416664" lon="-105.12874">
        <ele>1560.864982</ele>
        <time>2024-06-22T06:36:57.000Z</time>
      </trkpt>
      <trkpt lat="40.416884" lon="-105.129017">
        <ele>1560.346807</ele>
        <time>2024-06-22T06:37:00.000Z</time>
      </trkpt>
      <trkpt lat="40.417015" lon="-105.129305">
        <ele>1559.921707</ele>
        <time>2024-06-22T06:37:03.000Z</time>
      </trkpt>
      <trkpt lat="40.417054" lon="-105.12959">
        <ele>1559.538882</ele>
        <time>2024-06-22T06:37:05.000Z</time>
      </trkpt>
      <trkpt lat="40.416996" lon="-105.13029">
        <ele>1558.525455</ele>
        <time>2024-06-22T06:37:11.000Z</time>
      </trkpt>
      <trkpt lat="40.416922" lon="-105.130366">
        <ele>1558.280427</ele>
        <time>2024-06-22T06:37:12.000Z</time>
      </trkpt>
      <trkpt lat="40.41658" lon="-105.130318">
        <ele>1557.435221</ele>
        <time>2024-06-22T06:37:16.000Z</time>
      </trkpt>
      <trkpt lat="40.415027" lon="-105.130429">
        <ele>1553.709026</ele>
        <time>2024-06-22T06:37:33.000Z</time>
      </trkpt>
      <trkpt lat="40.414963" lon="-105.13043">
        <ele>1553.51347</ele>
        <time>2024-06-22T06:37:34.000Z</time>
      </trkpt>
      <trkpt lat="40.414584" lon="-105.130383">
        <ele>1552.571185</ele>
        <time>2024-06-22T06:37:38.000Z</time>
      </trkpt>
      <trkpt lat="40.414502" lon="-105.130369">
        <ele>1552.371821</ele>
        <time>2024-06-22T06:37:39.000Z</time>
      </trkpt>
      <trkpt lat="40.413358" lon="-105.130105">
        <ele>1549.774742</ele>
        <time>2024-06-22T06:37:52.000Z</time>
      </trkpt>
      <trkpt lat="40.413051" lon="-105.130044">
        <ele>1549.334469</ele>
        <time>2024-06-22T06:37:55.000Z</time>
      </trkpt>
      <trkpt lat="40.412387" lon="-105.130059">
        <ele>1548.394815</ele>
        <time>2024-06-22T06:38:02.000Z</time>
      </trkpt>
      <trkpt lat="40.411792" lon="-105.130252">
        <ele>1547.536274</ele>
        <time>2024-06-22T06:38:09.000Z</time>
      </trkpt>
      <trkpt lat="40.410972" lon="-105.130785">
        <ele>1546.489484</ele>
        <time>2024-06-22T06:38:19.000Z</time>
      </trkpt>
      <trkpt lat="40.410616" lon="-105.13103">
        <ele>1546.03845</ele>
        <time>2024-06-22T06:38:23.000Z</time>
      </trkpt>
      <trkpt lat="40.410195" lon="-105.131238">
        <ele>1545.501249</ele>
        <time>2024-06-22T06:38:28.000Z</time>
      </trkpt>
      <trkpt lat="40.409772" lon="-105.131368">
        <ele>1544.563385</ele>
        <time>2024-06-22T06:38:33.000Z</time>
      </trkpt>
      <trkpt lat="40.409417" lon="-105.131422">
        <ele>1543.810573</ele>
        <time>2024-06-22T06:38:37.000Z</time>
      </trkpt>
      <trkpt lat="40.408342" lon="-105.131446">
        <ele>1541.607747</ele>
        <time>2024-06-22T06:38:49.000Z</time>
      </trkpt>
      <trkpt lat="40.407515" lon="-105.131474">
        <ele>1540.504158</ele>
        <time>2024-06-22T06:38:58.000Z</time>
      </trkpt>
      <trkpt lat="40.407339" lon="-105.131477">
        <ele>1540.257018</ele>
        <time>2024-06-22T06:39:00.000Z</time>
      </trkpt>
      <trkpt lat="40.407346" lon="-105.131785">
        <ele>1539.934481</ele>
        <time>2024-06-22T06:39:03.000Z</time>
      </trkpt>
      <trkpt lat="40.407341" lon="-105.132431">
        <ele>1539.423861</ele>
        <time>2024-06-22T06:39:08.000Z</time>
      </trkpt>
      <trkpt lat="40.407343" lon="-105.132529">
        <ele>1539.502452</ele>
        <time>2024-06-22T06:39:09.000Z</time>
      </trkpt>
      <trkpt lat="40.407363" lon="-105.132739">
        <ele>1539.70066</ele>
        <time>2024-06-22T06:39:11.000Z</time>
      </trkpt>
      <trkpt lat="40.407358" lon="-105.133006">
        <ele>1539.933662</ele>
        <time>2024-06-22T06:39:13.000Z</time>
      </trkpt>
      <trkpt lat="40.407357" lon="-105.133326">
        <ele>1540.22037</ele>
        <time>2024-06-22T06:39:16.000Z</time>
      </trkpt>
      <trkpt lat="40.407346" lon="-105.133373">
        <ele>1540.259665</ele>
        <time>2024-06-22T06:39:16.000Z</time>
      </trkpt>
      <trkpt lat="40.407329" lon="-105.134221">
        <ele>1541.025135</ele>
        <time>2024-06-22T06:39:23.000Z</time>
      </trkpt>
      <trkpt lat="40.40731" lon="-105.134355">
        <ele>1541.145016</ele>
        <time>2024-06-22T06:39:24.000Z</time>
      </trkpt>
      <trkpt lat="40.4073" lon="-105.134627">
        <ele>1541.38115</ele>
        <time>2024-06-22T06:39:26.000Z</time>
      </trkpt>
      <trkpt lat="40.407296" lon="-105.134993">
        <ele>1541.838</ele>
        <time>2024-06-22T06:39:29.000Z</time>
      </trkpt>
      <trkpt lat="40.407293" lon="-105.135147">
        <ele>1542.044254</ele>
        <time>2024-06-22T06:39:30.000Z</time>
      </trkpt>
      <trkpt lat="40.407292" lon="-105.135767">
        <ele>1542.889625</ele>
        <time>2024-06-22T06:39:35.000Z</time>
      </trkpt>
      <trkpt lat="40.407294" lon="-105.136154">
        <ele>1543.397109</ele>
        <time>2024-06-22T06:39:38.000Z</time>
      </trkpt>
      <trkpt lat="40.407287" lon="-105.136324">
        <ele>1543.63593</ele>
        <time>2024-06-22T06:39:39.000Z</time>
      </trkpt>
      <trkpt lat="40.407295" lon="-105.136687">
        <ele>1544.139376</ele>
        <time>2024-06-22T06:39:42.000Z</time>
      </trkpt>
      <trkpt lat="40.407302" lon="-105.136936">
        <ele>1544.463861</ele>
        <time>2024-06-22T06:39:44.000Z</time>
      </trkpt>
      <trkpt lat="40.407306" lon="-105.137206">
        <ele>1544.720673</ele>
        <time>2024-06-22T06:39:46.000Z</time>
      </trkpt>
      <trkpt lat="40.407314" lon="-105.137701">
        <ele>1544.924478</ele>
        <time>2024-06-22T06:39:50.000Z</time>
      </trkpt>
      <trkpt lat="40.407337" lon="-105.138709">
        <ele>1545.344647</ele>
        <time>2024-06-22T06:39:59.000Z</time>
      </trkpt>
      <trkpt lat="40.407345" lon="-105.139072">
        <ele>1545.500124</ele>
        <time>2024-06-22T06:40:02.000Z</time>
      </trkpt>
      <trkpt lat="40.407338" lon="-105.139375">
        <ele>1545.623533</ele>
        <time>2024-06-22T06:40:05.000Z</time>
      </trkpt>
      <trkpt lat="40.407337" lon="-105.139756">
        <ele>1545.136448</ele>
        <time>2024-06-22T06:40:08.000Z</time>
      </trkpt>
      <trkpt lat="40.40734" lon="-105.139852">
        <ele>1544.986491</ele>
        <time>2024-06-22T06:40:09.000Z</time>
      </trkpt>
      <trkpt lat="40.407252" lon="-105.140489">
        <ele>1543.92747</ele>
        <time>2024-06-22T06:40:14.000Z</time>
      </trkpt>
      <trkpt lat="40.407115" lon="-105.141078">
        <ele>1542.924298</ele>
        <time>2024-06-22T06:40:19.000Z</time>
      </trkpt>
      <trkpt lat="40.406993" lon="-105.141505">
        <ele>1542.184649</ele>
        <time>2024-06-22T06:40:23.000Z</time>
      </trkpt>
      <trkpt lat="40.406931" lon="-105.141637">
        <ele>1541.939536</ele>
        <time>2024-06-22T06:40:24.000Z</time>
      </trkpt>
      <trkpt lat="40.406728" lon="-105.142387">
        <ele>1541.22649</ele>
        <time>2024-06-22T06:40:31.000Z</time>
      </trkpt>
      <trkpt lat="40.406717" lon="-105.142429">
        <ele>1541.192282</ele>
        <time>2024-06-22T06:40:31.000Z</time>
      </trkpt>
      <trkpt lat="40.406644" lon="-105.143348">
        <ele>1540.427416</ele>
        <time>2024-06-22T06:40:39.000Z</time>
      </trkpt>
      <trkpt lat="40.406759" lon="-105.144434">
        <ele>1540.690247</ele>
        <time>2024-06-22T06:40:48.000Z</time>
      </trkpt>
      <trkpt lat="40.406786" lon="-105.144596">
        <ele>1541.042098</ele>
        <time>2024-06-22T06:40:49.000Z</time>
      </trkpt>
      <trkpt lat="40.407075" lon="-105.146604">
        <ele>1545.314235</ele>
        <time>2024-06-22T06:41:06.000Z</time>
      </trkpt>
      <trkpt lat="40.40713" lon="-105.146922">
        <ele>1546.168697</ele>
        <time>2024-06-22T06:41:09.000Z</time>
      </trkpt>
      <trkpt lat="40.407148" lon="-105.147027">
        <ele>1546.460816</ele>
        <time>2024-06-22T06:41:10.000Z</time>
      </trkpt>
      <trkpt lat="40.407179" lon="-105.147208">
        <ele>1546.965393</ele>
        <time>2024-06-22T06:41:12.000Z</time>
      </trkpt>
      <trkpt lat="40.407355" lon="-105.148331">
        <ele>1550.089482</ele>
        <time>2024-06-22T06:41:22.000Z</time>
      </trkpt>
      <trkpt lat="40.407382" lon="-105.148481">
        <ele>1550.513256</ele>
        <time>2024-06-22T06:41:23.000Z</time>
      </trkpt>
      <trkpt lat="40.407414" lon="-105.14867">
        <ele>1550.98503</ele>
        <time>2024-06-22T06:41:25.000Z</time>
      </trkpt>
      <trkpt lat="40.407434" lon="-105.148822">
        <ele>1550.96082</ele>
        <time>2024-06-22T06:41:26.000Z</time>
      </trkpt>
      <trkpt lat="40.407515" lon="-105.149303">
        <ele>1550.876208</ele>
        <time>2024-06-22T06:41:30.000Z</time>
      </trkpt>
      <trkpt lat="40.407749" lon="-105.150665">
        <ele>1550.642891</ele>
        <time>2024-06-22T06:41:42.000Z</time>
      </trkpt>
      <trkpt lat="40.407996" lon="-105.152047">
        <ele>1548.632327</ele>
        <time>2024-06-22T06:41:54.000Z</time>
      </trkpt>
      <trkpt lat="40.408247" lon="-105.152381">
        <ele>1547.827524</ele>
        <time>2024-06-22T06:41:58.000Z</time>
      </trkpt>
      <trkpt lat="40.408699" lon="-105.152792">
        <ele>1546.534089</ele>
        <time>2024-06-22T06:42:04.000Z</time>
      </trkpt>
      <trkpt lat="40.408935" lon="-105.15307">
        <ele>1546.122558</ele>
        <time>2024-06-22T06:42:08.000Z</time>
      </trkpt>
      <trkpt lat="40.409829" lon="-105.154179">
        <ele>1544.735287</ele>
        <time>2024-06-22T06:42:22.000Z</time>
      </trkpt>
      <trkpt lat="40.409868" lon="-105.154659">
        <ele>1544.292641</ele>
        <time>2024-06-22T06:42:26.000Z</time>
      </trkpt>
      <trkpt lat="40.409933" lon="-105.155855">
        <ele>1542.890795</ele>
        <time>2024-06-22T06:42:36.000Z</time>
      </trkpt>
      <trkpt lat="40.410064" lon="-105.157676">
        <ele>1541.011599</ele>
        <time>2024-06-22T06:42:51.000Z</time>
      </trkpt>
      <trkpt lat="40.410118" lon="-105.158463">
        <ele>1540.362829</ele>
        <time>2024-06-22T06:42:58.000Z</time>
      </trkpt>
      <trkpt lat="40.410154" lon="-105.15881">
        <ele>1540.086605</ele>
        <time>2024-06-22T06:43:01.000Z</time>
      </trkpt>
      <trkpt lat="40.410179" lon="-105.159271">
        <ele>1539.709216</ele>
        <time>2024-06-22T06:43:05.000Z</time>
      </trkpt>
      <trkpt lat="40.410248" lon="-105.160024">
        <ele>1539.624987</ele>
        <time>2024-06-22T06:43:11.000Z</time>
      </trkpt>
      <trkpt lat="40.410266" lon="-105.160227">
        <ele>1539.603686</ele>
        <time>2024-06-22T06:43:13.000Z</time>
      </trkpt>
      <trkpt lat="40.410321" lon="-105.16076">
        <ele>1539.544563</ele>
        <time>2024-06-22T06:43:18.000Z</time>
      </trkpt>
      <trkpt lat="40.410347" lon="-105.161065">
        <ele>1539.510742</ele>
        <time>2024-06-22T06:43:21.000Z</time>
      </trkpt>
      <trkpt lat="40.41035" lon="-105.161171">
        <ele>1539.498998</ele>
        <time>2024-06-22T06:43:22.000Z</time>
      </trkpt>
      <trkpt lat="40.410401" lon="-105.161642">
        <ele>1539.459573</ele>
        <time>2024-06-22T06:43:26.000Z</time>
      </trkpt>
      <trkpt lat="40.410608" lon="-105.161791">
        <ele>1539.616277</ele>
        <time>2024-06-22T06:43:29.000Z</time>
      </trkpt>
      <trkpt lat="40.410805" lon="-105.162126">
        <ele>1539.842466</ele>
        <time>2024-06-22T06:43:33.000Z</time>
      </trkpt>
      <trkpt lat="40.411292" lon="-105.163019">
        <ele>1540.406719</ele>
        <time>2024-06-22T06:43:42.000Z</time>
      </trkpt>
      <trkpt lat="40.411413" lon="-105.163325">
        <ele>1540.586749</ele>
        <time>2024-06-22T06:43:45.000Z</time>
      </trkpt>
      <trkpt lat="40.411641" lon="-105.165378">
        <ele>1542.447451</ele>
        <time>2024-06-22T06:44:03.000Z</time>
      </trkpt>
      <trkpt lat="40.411733" lon="-105.16577">
        <ele>1542.810302</ele>
        <time>2024-06-22T06:44:06.000Z</time>
      </trkpt>
      <trkpt lat="40.411887" lon="-105.166104">
        <ele>1543.28088</ele>
        <time>2024-06-22T06:44:09.000Z</time>
      </trkpt>
      <trkpt lat="40.412122" lon="-105.166417">
        <ele>1543.822453</ele>
        <time>2024-06-22T06:44:13.000Z</time>
      </trkpt>
      <trkpt lat="40.413227" lon="-105.167329">
        <ele>1545.878856</ele>
        <time>2024-06-22T06:44:28.000Z</time>
      </trkpt>
      <trkpt lat="40.413682" lon="-105.167773">
        <ele>1546.616215</ele>
        <time>2024-06-22T06:44:34.000Z</time>
      </trkpt>
      <trkpt lat="40.414056" lon="-105.168169">
        <ele>1547.241149</ele>
        <time>2024-06-22T06:44:39.000Z</time>
      </trkpt>
      <trkpt lat="40.414403" lon="-105.168518">
        <ele>1547.802878</ele>
        <time>2024-06-22T06:44:44.000Z</time>
      </trkpt>
      <trkpt lat="40.414612" lon="-105.168728">
        <ele>1548.150619</ele>
        <time>2024-06-22T06:44:47.000Z</time>
      </trkpt>
      <trkpt lat="40.414946" lon="-105.168966">
        <ele>1548.62334</ele>
        <time>2024-06-22T06:44:51.000Z</time>
      </trkpt>
      <trkpt lat="40.415091" lon="-105.169035">
        <ele>1548.814281</ele>
        <time>2024-06-22T06:44:53.000Z</time>
      </trkpt>
      <trkpt lat="40.415195" lon="-105.169084">
        <ele>1548.961611</ele>
        <time>2024-06-22T06:44:54.000Z</time>
      </trkpt>
      <trkpt lat="40.415439" lon="-105.169165">
        <ele>1549.281419</ele>
        <time>2024-06-22T06:44:57.000Z</time>
      </trkpt>
      <trkpt lat="40.415465" lon="-105.169178">
        <ele>1549.295784</ele>
        <time>2024-06-22T06:44:57.000Z</time>
      </trkpt>
      <trkpt lat="40.416" lon="-105.169235">
        <ele>1549.981175</ele>
        <time>2024-06-22T06:45:03.000Z</time>
      </trkpt>
      <trkpt lat="40.416149" lon="-105.169235">
        <ele>1550.164851</ele>
        <time>2024-06-22T06:45:05.000Z</time>
      </trkpt>
      <trkpt lat="40.416157" lon="-105.169237">
        <ele>1550.184982</ele>
        <time>2024-06-22T06:45:05.000Z</time>
      </trkpt>
      <trkpt lat="40.416716" lon="-105.169234">
        <ele>1550.983101</ele>
        <time>2024-06-22T06:45:11.000Z</time>
      </trkpt>
      <trkpt lat="40.416995" lon="-105.16923">
        <ele>1551.390981</ele>
        <time>2024-06-22T06:45:14.000Z</time>
      </trkpt>
      <trkpt lat="40.417412" lon="-105.16922">
        <ele>1552.008666</ele>
        <time>2024-06-22T06:45:19.000Z</time>
      </trkpt>
      <trkpt lat="40.417545" lon="-105.169221">
        <ele>1552.180331</ele>
        <time>2024-06-22T06:45:20.000Z</time>
      </trkpt>
      <trkpt lat="40.417724" lon="-105.169237">
        <ele>1552.454689</ele>
        <time>2024-06-22T06:45:22.000Z</time>
      </trkpt>
      <trkpt lat="40.418159" lon="-105.169235">
        <ele>1553.074426</ele>
        <time>2024-06-22T06:45:27.000Z</time>
      </trkpt>
      <trkpt lat="40.418461" lon="-105.169235">
        <ele>1553.438565</ele>
        <time>2024-06-22T06:45:30.000Z</time>
      </trkpt>
      <trkpt lat="40.41892" lon="-105.169219">
        <ele>1554.026879</ele>
        <time>2024-06-22T06:45:35.000Z</time>
      </trkpt>
      <trkpt lat="40.419029" lon="-105.169234">
        <ele>1554.153219</ele>
        <time>2024-06-22T06:45:36.000Z</time>
      </trkpt>
      <trkpt lat="40.419106" lon="-105.169224">
        <ele>1554.242408</ele>
        <time>2024-06-22T06:45:37.000Z</time>
      </trkpt>
      <trkpt lat="40.419184" lon="-105.169232">
        <ele>1554.336542</ele>
        <time>2024-06-22T06:45:38.000Z</time>
      </trkpt>
      <trkpt lat="40.419665" lon="-105.169286">
        <ele>1554.933472</ele>
        <time>2024-06-22T06:45:43.000Z</time>
      </trkpt>
      <trkpt lat="40.41991" lon="-105.169415">
        <ele>1555.190051</ele>
        <time>2024-06-22T06:45:46.000Z</time>
      </trkpt>
      <trkpt lat="40.420136" lon="-105.169627">
        <ele>1555.133904</ele>
        <time>2024-06-22T06:45:49.000Z</time>
      </trkpt>
      <trkpt lat="40.420402" lon="-105.170013">
        <ele>1555.056679</ele>
        <time>2024-06-22T06:45:53.000Z</time>
      </trkpt>
      <trkpt lat="40.420725" lon="-105.170708">
        <ele>1554.933156</ele>
        <time>2024-06-22T06:46:00.000Z</time>
      </trkpt>
      <trkpt lat="40.421207" lon="-105.171839">
        <ele>1554.323535</ele>
        <time>2024-06-22T06:46:11.000Z</time>
      </trkpt>
      <trkpt lat="40.421278" lon="-105.171959">
        <ele>1554.197958</ele>
        <time>2024-06-22T06:46:12.000Z</time>
      </trkpt>
      <trkpt lat="40.421326" lon="-105.172033">
        <ele>1554.130011</ele>
        <time>2024-06-22T06:46:13.000Z</time>
      </trkpt>
      <trkpt lat="40.421495" lon="-105.172214">
        <ele>1553.924465</ele>
        <time>2024-06-22T06:46:15.000Z</time>
      </trkpt>
      <trkpt lat="40.422006" lon="-105.172526">
        <ele>1553.368941</ele>
        <time>2024-06-22T06:46:21.000Z</time>
      </trkpt>
      <trkpt lat="40.422108" lon="-105.172643">
        <ele>1553.231828</ele>
        <time>2024-06-22T06:46:23.000Z</time>
      </trkpt>
      <trkpt lat="40.422192" lon="-105.172854">
        <ele>1553.092858</ele>
        <time>2024-06-22T06:46:25.000Z</time>
      </trkpt>
      <trkpt lat="40.422207" lon="-105.173088">
        <ele>1553.164512</ele>
        <time>2024-06-22T06:46:27.000Z</time>
      </trkpt>
      <trkpt lat="40.4222" lon="-105.173465">
        <ele>1553.278436</ele>
        <time>2024-06-22T06:46:30.000Z</time>
      </trkpt>
      <trkpt lat="40.422215" lon="-105.173651">
        <ele>1553.330265</ele>
        <time>2024-06-22T06:46:32.000Z</time>
      </trkpt>
      <trkpt lat="40.422206" lon="-105.173963">
        <ele>1553.427594</ele>
        <time>2024-06-22T06:46:35.000Z</time>
      </trkpt>
      <trkpt lat="40.422769" lon="-105.173965">
        <ele>1553.652445</ele>
        <time>2024-06-22T06:46:41.000Z</time>
      </trkpt>
      <trkpt lat="40.422804" lon="-105.173968">
        <ele>1553.665513</ele>
        <time>2024-06-22T06:46:41.000Z</time>
      </trkpt>
      <trkpt lat="40.42294" lon="-105.17397">
        <ele>1553.713806</ele>
        <time>2024-06-22T06:46:43.000Z</time>
      </trkpt>
      <trkpt lat="40.423193" lon="-105.173964">
        <ele>1553.916572</ele>
        <time>2024-06-22T06:46:46.000Z</time>
      </trkpt>
      <trkpt lat="40.42348" lon="-105.17397">
        <ele>1554.491379</ele>
        <time>2024-06-22T06:46:49.000Z</time>
      </trkpt>
      <trkpt lat="40.423672" lon="-105.173977">
        <ele>1554.906402</ele>
        <time>2024-06-22T06:46:51.000Z</time>
      </trkpt>
      <trkpt lat="40.423959" lon="-105.173975">
        <ele>1555.47913</ele>
        <time>2024-06-22T06:46:54.000Z</time>
      </trkpt>
      <trkpt lat="40.424241" lon="-105.17397">
        <ele>1556.087149</ele>
        <time>2024-06-22T06:46:57.000Z</time>
      </trkpt>
      <trkpt lat="40.424929" lon="-105.173966">
        <ele>1557.516907</ele>
        <time>2024-06-22T06:47:05.000Z</time>
      </trkpt>
      <trkpt lat="40.425137" lon="-105.173954">
        <ele>1557.991211</ele>
        <time>2024-06-22T06:47:07.000Z</time>
      </trkpt>
      <trkpt lat="40.425517" lon="-105.173971">
        <ele>1558.870679</ele>
        <time>2024-06-22T06:47:11.000Z</time>
      </trkpt>
      <trkpt lat="40.426133" lon="-105.173962">
        <ele>1560.30643</ele>
        <time>2024-06-22T06:47:18.000Z</time>
      </trkpt>
      <trkpt lat="40.426683" lon="-105.173971">
        <ele>1561.539034</ele>
        <time>2024-06-22T06:47:24.000Z</time>
      </trkpt>
      <trkpt lat="40.426716" lon="-105.173969">
        <ele>1561.615232</ele>
        <time>2024-06-22T06:47:24.000Z</time>
      </trkpt>
      <trkpt lat="40.427416" lon="-105.17396">
        <ele>1563.097965</ele>
        <time>2024-06-22T06:47:32.000Z</time>
      </trkpt>
      <trkpt lat="40.427619" lon="-105.173962">
        <ele>1563.51056</ele>
        <time>2024-06-22T06:47:34.000Z</time>
      </trkpt>
      <trkpt lat="40.427924" lon="-105.173966">
        <ele>1564.13672</ele>
        <time>2024-06-22T06:47:37.000Z</time>
      </trkpt>
      <trkpt lat="40.428285" lon="-105.173958">
        <ele>1564.887277</ele>
        <time>2024-06-22T06:47:41.000Z</time>
      </trkpt>
      <trkpt lat="40.428851" lon="-105.17395">
        <ele>1566.10565</ele>
        <time>2024-06-22T06:47:47.000Z</time>
      </trkpt>
      <trkpt lat="40.429245" lon="-105.173955">
        <ele>1566.998693</ele>
        <time>2024-06-22T06:47:51.000Z</time>
      </trkpt>
      <trkpt lat="40.429483" lon="-105.173964">
        <ele>1567.495065</ele>
        <time>2024-06-22T06:47:54.000Z</time>
      </trkpt>
      <trkpt lat="40.429795" lon="-105.173947">
        <ele>1568.199741</ele>
        <time>2024-06-22T06:47:57.000Z</time>
      </trkpt>
      <trkpt lat="40.429938" lon="-105.173955">
        <ele>1568.523278</ele>
        <time>2024-06-22T06:47:59.000Z</time>
      </trkpt>
      <trkpt lat="40.430183" lon="-105.173959">
        <ele>1569.059543</ele>
        <time>2024-06-22T06:48:02.000Z</time>
      </trkpt>
      <trkpt lat="40.430745" lon="-105.173963">
        <ele>1570.266948</ele>
        <time>2024-06-22T06:48:08.000Z</time>
      </trkpt>
      <trkpt lat="40.430944" lon="-105.173958">
        <ele>1570.646328</ele>
        <time>2024-06-22T06:48:10.000Z</time>
      </trkpt>
      <trkpt lat="40.431087" lon="-105.173951">
        <ele>1570.949019</ele>
        <time>2024-06-22T06:48:12.000Z</time>
      </trkpt>
      <trkpt lat="40.431481" lon="-105.173947">
        <ele>1571.769977</ele>
        <time>2024-06-22T06:48:16.000Z</time>
      </trkpt>
      <trkpt lat="40.431719" lon="-105.173956">
        <ele>1572.2696</ele>
        <time>2024-06-22T06:48:19.000Z</time>
      </trkpt>
      <trkpt lat="40.432057" lon="-105.17394">
        <ele>1572.980685</ele>
        <time>2024-06-22T06:48:23.000Z</time>
      </trkpt>
      <trkpt lat="40.432466" lon="-105.173942">
        <ele>1572.969271</ele>
        <time>2024-06-22T06:48:28.000Z</time>
      </trkpt>
      <trkpt lat="40.432881" lon="-105.17402">
        <ele>1572.781166</ele>
        <time>2024-06-22T06:48:33.000Z</time>
      </trkpt>
      <trkpt lat="40.433132" lon="-105.174317">
        <ele>1572.632452</ele>
        <time>2024-06-22T06:48:37.000Z</time>
      </trkpt>
      <trkpt lat="40.433185" lon="-105.174487">
        <ele>1572.566341</ele>
        <time>2024-06-22T06:48:39.000Z</time>
      </trkpt>
      <trkpt lat="40.433205" lon="-105.17459">
        <ele>1572.532109</ele>
        <time>2024-06-22T06:48:40.000Z</time>
      </trkpt>
      <trkpt lat="40.433451" lon="-105.177051">
        <ele>1569.183757</ele>
        <time>2024-06-22T06:49:01.000Z</time>
      </trkpt>
      <trkpt lat="40.433572" lon="-105.178235">
        <ele>1567.393154</ele>
        <time>2024-06-22T06:49:11.000Z</time>
      </trkpt>
      <trkpt lat="40.433662" lon="-105.178715">
        <ele>1566.7565</ele>
        <time>2024-06-22T06:49:15.000Z</time>
      </trkpt>
      <trkpt lat="40.433755" lon="-105.179029">
        <ele>1566.294836</ele>
        <time>2024-06-22T06:49:18.000Z</time>
      </trkpt>
      <trkpt lat="40.434072" lon="-105.179832">
        <ele>1565.163343</ele>
        <time>2024-06-22T06:49:26.000Z</time>
      </trkpt>
      <trkpt lat="40.434293" lon="-105.180387">
        <ele>1565.392016</ele>
        <time>2024-06-22T06:49:31.000Z</time>
      </trkpt>
      <trkpt lat="40.434545" lon="-105.181756">
        <ele>1565.917744</ele>
        <time>2024-06-22T06:49:43.000Z</time>
      </trkpt>
      <trkpt lat="40.437238" lon="-105.182775">
        <ele>1573.362656</ele>
        <time>2024-06-22T06:50:14.000Z</time>
      </trkpt>
      <trkpt lat="40.437646" lon="-105.182935">
        <ele>1574.67992</ele>
        <time>2024-06-22T06:50:19.000Z</time>
      </trkpt>
      <trkpt lat="40.438395" lon="-105.183232">
        <ele>1577.147525</ele>
        <time>2024-06-22T06:50:28.000Z</time>
      </trkpt>
      <trkpt lat="40.440836" lon="-105.18417">
        <ele>1585.306563</ele>
        <time>2024-06-22T06:50:56.000Z</time>
      </trkpt>
      <trkpt lat="40.442573" lon="-105.184843">
        <ele>1590.085759</ele>
        <time>2024-06-22T06:51:16.000Z</time>
      </trkpt>
      <trkpt lat="40.44285" lon="-105.184955">
        <ele>1590.74385</ele>
        <time>2024-06-22T06:51:19.000Z</time>
      </trkpt>
      <trkpt lat="40.44348" lon="-105.185208">
        <ele>1592.152473</ele>
        <time>2024-06-22T06:51:26.000Z</time>
      </trkpt>
      <trkpt lat="40.443852" lon="-105.185344">
        <ele>1592.763286</ele>
        <time>2024-06-22T06:51:30.000Z</time>
      </trkpt>
      <trkpt lat="40.44446" lon="-105.185566">
        <ele>1593.746485</ele>
        <time>2024-06-22T06:51:37.000Z</time>
      </trkpt>
      <trkpt lat="40.445446" lon="-105.185952">
        <ele>1595.442989</ele>
        <time>2024-06-22T06:51:48.000Z</time>
      </trkpt>
      <trkpt lat="40.445704" lon="-105.186063">
        <ele>1595.891098</ele>
        <time>2024-06-22T06:51:51.000Z</time>
      </trkpt>
      <trkpt lat="40.445984" lon="-105.186161">
        <ele>1596.405086</ele>
        <time>2024-06-22T06:51:54.000Z</time>
      </trkpt>
      <trkpt lat="40.446125" lon="-105.186219">
        <ele>1596.652595</ele>
        <time>2024-06-22T06:51:56.000Z</time>
      </trkpt>
      <trkpt lat="40.446686" lon="-105.18645">
        <ele>1597.695272</ele>
        <time>2024-06-22T06:52:03.000Z</time>
      </trkpt>
      <trkpt lat="40.447679" lon="-105.18697">
        <ele>1599.756703</ele>
        <time>2024-06-22T06:52:15.000Z</time>
      </trkpt>
      <trkpt lat="40.448806" lon="-105.187426">
        <ele>1601.954921</ele>
        <time>2024-06-22T06:52:28.000Z</time>
      </trkpt>
      <trkpt lat="40.449308" lon="-105.187615">
        <ele>1602.757179</ele>
        <time>2024-06-22T06:52:34.000Z</time>
      </trkpt>
      <trkpt lat="40.449676" lon="-105.18776">
        <ele>1603.370131</ele>
        <time>2024-06-22T06:52:38.000Z</time>
      </trkpt>
      <trkpt lat="40.44994" lon="-105.187876">
        <ele>1603.782686</ele>
        <time>2024-06-22T06:52:41.000Z</time>
      </trkpt>
      <trkpt lat="40.450174" lon="-105.187959">
        <ele>1604.176053</ele>
        <time>2024-06-22T06:52:44.000Z</time>
      </trkpt>
      <trkpt lat="40.450875" lon="-105.188243">
        <ele>1604.665714</ele>
        <time>2024-06-22T06:52:52.000Z</time>
      </trkpt>
      <trkpt lat="40.453075" lon="-105.18906">
        <ele>1606.492834</ele>
        <time>2024-06-22T06:53:17.000Z</time>
      </trkpt>
      <trkpt lat="40.45495" lon="-105.189689">
        <ele>1609.600658</ele>
        <time>2024-06-22T06:53:39.000Z</time>
      </trkpt>
      <trkpt lat="40.458991" lon="-105.190984">
        <ele>1617.342413</ele>
        <time>2024-06-22T06:54:25.000Z</time>
      </trkpt>
      <trkpt lat="40.461833" lon="-105.1919">
        <ele>1626.494852</ele>
        <time>2024-06-22T06:54:58.000Z</time>
      </trkpt>
      <trkpt lat="40.462936" lon="-105.192242">
        <ele>1630.148843</ele>
        <time>2024-06-22T06:55:11.000Z</time>
      </trkpt>
      <trkpt lat="40.464354" lon="-105.192438">
        <ele>1634.710345</ele>
        <time>2024-06-22T06:55:27.000Z</time>
      </trkpt>
      <trkpt lat="40.464881" lon="-105.192661">
        <ele>1636.328225</ele>
        <time>2024-06-22T06:55:33.000Z</time>
      </trkpt>
      <trkpt lat="40.464967" lon="-105.192694">
        <ele>1636.611535</ele>
        <time>2024-06-22T06:55:34.000Z</time>
      </trkpt>
      <trkpt lat="40.465697" lon="-105.19313">
        <ele>1638.976315</ele>
        <time>2024-06-22T06:55:43.000Z</time>
      </trkpt>
      <trkpt lat="40.467289" lon="-105.193868">
        <ele>1644.111685</ele>
        <time>2024-06-22T06:56:02.000Z</time>
      </trkpt>
      <trkpt lat="40.468573" lon="-105.194627">
        <ele>1647.882243</ele>
        <time>2024-06-22T06:56:18.000Z</time>
      </trkpt>
      <trkpt lat="40.472242" lon="-105.195904">
        <ele>1656.358459</ele>
        <time>2024-06-22T06:57:00.000Z</time>
      </trkpt>
      <trkpt lat="40.475455" lon="-105.197029">
        <ele>1657.789548</ele>
        <time>2024-06-22T06:57:37.000Z</time>
      </trkpt>
      <trkpt lat="40.476234" lon="-105.197159">
        <ele>1657.346411</ele>
        <time>2024-06-22T06:57:46.000Z</time>
      </trkpt>
      <trkpt lat="40.476527" lon="-105.197157">
        <ele>1657.081004</ele>
        <time>2024-06-22T06:57:49.000Z</time>
      </trkpt>
      <trkpt lat="40.477345" lon="-105.197281">
        <ele>1656.338119</ele>
        <time>2024-06-22T06:57:58.000Z</time>
      </trkpt>
      <trkpt lat="40.477855" lon="-105.197511">
        <ele>1655.84143</ele>
        <time>2024-06-22T06:58:04.000Z</time>
      </trkpt>
      <trkpt lat="40.48022" lon="-105.198807">
        <ele>1661.110661</ele>
        <time>2024-06-22T06:58:32.000Z</time>
      </trkpt>
      <trkpt lat="40.481417" lon="-105.199125">
        <ele>1663.779264</ele>
        <time>2024-06-22T06:58:46.000Z</time>
      </trkpt>
      <trkpt lat="40.482935" lon="-105.199528">
        <ele>1664.323916</ele>
        <time>2024-06-22T06:59:03.000Z</time>
      </trkpt>
      <trkpt lat="40.483704" lon="-105.199721">
        <ele>1662.031274</ele>
        <time>2024-06-22T06:59:12.000Z</time>
      </trkpt>
      <trkpt lat="40.483749" lon="-105.19973">
        <ele>1661.878493</ele>
        <time>2024-06-22T06:59:13.000Z</time>
      </trkpt>
      <trkpt lat="40.486308" lon="-105.200144">
        <ele>1649.33432</ele>
        <time>2024-06-22T06:59:42.000Z</time>
      </trkpt>
      <trkpt lat="40.487169" lon="-105.200186">
        <ele>1644.974452</ele>
        <time>2024-06-22T06:59:52.000Z</time>
      </trkpt>
      <trkpt lat="40.487762" lon="-105.200073">
        <ele>1642.139898</ele>
        <time>2024-06-22T06:59:59.000Z</time>
      </trkpt>
      <trkpt lat="40.488132" lon="-105.199922">
        <ele>1640.359165</ele>
        <time>2024-06-22T07:00:03.000Z</time>
      </trkpt>
      <trkpt lat="40.488844" lon="-105.19949">
        <ele>1638.070666</ele>
        <time>2024-06-22T07:00:12.000Z</time>
      </trkpt>
      <trkpt lat="40.489215" lon="-105.199355">
        <ele>1637.50693</ele>
        <time>2024-06-22T07:00:16.000Z</time>
      </trkpt>
      <trkpt lat="40.489664" lon="-105.199326">
        <ele>1636.871438</ele>
        <time>2024-06-22T07:00:21.000Z</time>
      </trkpt>
      <trkpt lat="40.48979" lon="-105.199382">
        <ele>1636.66887</ele>
        <time>2024-06-22T07:00:22.000Z</time>
      </trkpt>
      <trkpt lat="40.48994" lon="-105.199518">
        <ele>1636.393323</ele>
        <time>2024-06-22T07:00:24.000Z</time>
      </trkpt>
      <trkpt lat="40.490291" lon="-105.19928">
        <ele>1636.36739</ele>
        <time>2024-06-22T07:00:28.000Z</time>
      </trkpt>
      <trkpt lat="40.490642" lon="-105.199185">
        <ele>1636.868493</ele>
        <time>2024-06-22T07:00:32.000Z</time>
      </trkpt>
      <trkpt lat="40.492259" lon="-105.199295">
        <ele>1639.189248</ele>
        <time>2024-06-22T07:00:50.000Z</time>
      </trkpt>
      <trkpt lat="40.493012" lon="-105.199367">
        <ele>1640.314242</ele>
        <time>2024-06-22T07:00:58.000Z</time>
      </trkpt>
      <trkpt lat="40.496559" lon="-105.199675">
        <ele>1645.26911</ele>
        <time>2024-06-22T07:01:38.000Z</time>
      </trkpt>
      <trkpt lat="40.497011" lon="-105.199675">
        <ele>1645.913326</ele>
        <time>2024-06-22T07:01:43.000Z</time>
      </trkpt>
      <trkpt lat="40.498491" lon="-105.199543">
        <ele>1648.213712</ele>
        <time>2024-06-22T07:01:59.000Z</time>
      </trkpt>
      <trkpt lat="40.503443" lon="-105.198818">
        <ele>1656.812878</ele>
        <time>2024-06-22T07:02:54.000Z</time>
      </trkpt>
      <trkpt lat="40.504612" lon="-105.198495">
        <ele>1659.033676</ele>
        <time>2024-06-22T07:03:07.000Z</time>
      </trkpt>
      <trkpt lat="40.50473" lon="-105.198465">
        <ele>1659.372495</ele>
        <time>2024-06-22T07:03:08.000Z</time>
      </trkpt>
      <trkpt lat="40.50493" lon="-105.198364">
        <ele>1660.004088</ele>
        <time>2024-06-22T07:03:10.000Z</time>
      </trkpt>
      <trkpt lat="40.505093" lon="-105.198277">
        <ele>1660.498357</ele>
        <time>2024-06-22T07:03:12.000Z</time>
      </trkpt>
      <trkpt lat="40.50538" lon="-105.198133">
        <ele>1661.407177</ele>
        <time>2024-06-22T07:03:15.000Z</time>
      </trkpt>
      <trkpt lat="40.50647" lon="-105.197324">
        <ele>1665.773934</ele>
        <time>2024-06-22T07:03:29.000Z</time>
      </trkpt>
      <trkpt lat="40.507012" lon="-105.196786">
        <ele>1668.837841</ele>
        <time>2024-06-22T07:03:37.000Z</time>
      </trkpt>
      <trkpt lat="40.507625" lon="-105.196029">
        <ele>1672.560772</ele>
        <time>2024-06-22T07:03:46.000Z</time>
      </trkpt>
      <trkpt lat="40.509062" lon="-105.193609">
        <ele>1682.155546</ele>
        <time>2024-06-22T07:04:12.000Z</time>
      </trkpt>
      <trkpt lat="40.509579" lon="-105.192891">
        <ele>1685.013709</ele>
        <time>2024-06-22T07:04:20.000Z</time>
      </trkpt>
      <trkpt lat="40.511608" lon="-105.190641">
        <ele>1694.896293</ele>
        <time>2024-06-22T07:04:50.000Z</time>
      </trkpt>
      <trkpt lat="40.512654" lon="-105.189634">
        <ele>1699.842739</ele>
        <time>2024-06-22T07:05:04.000Z</time>
      </trkpt>
      <trkpt lat="40.514086" lon="-105.188728">
        <ele>1706.755157</ele>
        <time>2024-06-22T07:05:22.000Z</time>
      </trkpt>
      <trkpt lat="40.515402" lon="-105.187585">
        <ele>1714.135532</ele>
        <time>2024-06-22T07:05:40.000Z</time>
      </trkpt>
      <trkpt lat="40.516163" lon="-105.187151">
        <ele>1718.539337</ele>
        <time>2024-06-22T07:05:49.000Z</time>
      </trkpt>
      <trkpt lat="40.517238" lon="-105.186841">
        <ele>1725.003668</ele>
        <time>2024-06-22T07:06:01.000Z</time>
      </trkpt>
      <trkpt lat="40.51799" lon="-105.186528">
        <ele>1730.731518</ele>
        <time>2024-06-22T07:06:10.000Z</time>
      </trkpt>
      <trkpt lat="40.519934" lon="-105.185416">
        <ele>1747.216113</ele>
        <time>2024-06-22T07:06:34.000Z</time>
      </trkpt>
      <trkpt lat="40.521197" lon="-105.184586">
        <ele>1755.673111</ele>
        <time>2024-06-22T07:06:50.000Z</time>
      </trkpt>
      <trkpt lat="40.521948" lon="-105.184036">
        <ele>1758.368425</ele>
        <time>2024-06-22T07:07:00.000Z</time>
      </trkpt>
      <trkpt lat="40.522205" lon="-105.1838">
        <ele>1759.345664</ele>
        <time>2024-06-22T07:07:03.000Z</time>
      </trkpt>
      <trkpt lat="40.522391" lon="-105.183549">
        <ele>1759.627442</ele>
        <time>2024-06-22T07:07:06.000Z</time>
      </trkpt>
      <trkpt lat="40.522527" lon="-105.183237">
        <ele>1759.026056</ele>
        <time>2024-06-22T07:07:09.000Z</time>
      </trkpt>
      <trkpt lat="40.522667" lon="-105.182688">
        <ele>1758.061052</ele>
        <time>2024-06-22T07:07:14.000Z</time>
      </trkpt>
      <trkpt lat="40.522674" lon="-105.18216">
        <ele>1757.139455</ele>
        <time>2024-06-22T07:07:18.000Z</time>
      </trkpt>
      <trkpt lat="40.522656" lon="-105.181861">
        <ele>1756.641781</ele>
        <time>2024-06-22T07:07:21.000Z</time>
      </trkpt>
      <trkpt lat="40.522642" lon="-105.181799">
        <ele>1756.548854</ele>
        <time>2024-06-22T07:07:22.000Z</time>
      </trkpt>
      <trkpt lat="40.522652" lon="-105.181739">
        <ele>1756.44736</ele>
        <time>2024-06-22T07:07:23.000Z</time>
      </trkpt>
      <trkpt lat="40.52264" lon="-105.181664">
        <ele>1756.305417</ele>
        <time>2024-06-22T07:07:24.000Z</time>
      </trkpt>
      <trkpt lat="40.522624" lon="-105.181448">
        <ele>1755.952194</ele>
        <time>2024-06-22T07:07:26.000Z</time>
      </trkpt>
      <trkpt lat="40.522617" lon="-105.181071">
        <ele>1755.066185</ele>
        <time>2024-06-22T07:07:29.000Z</time>
      </trkpt>
      <trkpt lat="40.5226" lon="-105.180743">
        <ele>1754.259378</ele>
        <time>2024-06-22T07:07:32.000Z</time>
      </trkpt>
      <trkpt lat="40.522656" lon="-105.180131">
        <ele>1752.745233</ele>
        <time>2024-06-22T07:07:37.000Z</time>
      </trkpt>
      <trkpt lat="40.522833" lon="-105.179729">
        <ele>1751.590197</ele>
        <time>2024-06-22T07:07:41.000Z</time>
      </trkpt>
      <trkpt lat="40.523072" lon="-105.179239">
        <ele>1750.143076</ele>
        <time>2024-06-22T07:07:46.000Z</time>
      </trkpt>
      <trkpt lat="40.52329" lon="-105.17861">
        <ele>1747.228468</ele>
        <time>2024-06-22T07:07:52.000Z</time>
      </trkpt>
      <trkpt lat="40.523384" lon="-105.17823">
        <ele>1745.487943</ele>
        <time>2024-06-22T07:07:55.000Z</time>
      </trkpt>
      <trkpt lat="40.523408" lon="-105.177761">
        <ele>1743.462356</ele>
        <time>2024-06-22T07:07:59.000Z</time>
      </trkpt>
      <trkpt lat="40.523272" lon="-105.177009">
        <ele>1740.051298</ele>
        <time>2024-06-22T07:08:06.000Z</time>
      </trkpt>
      <trkpt lat="40.52312" lon="-105.176318">
        <ele>1734.437678</ele>
        <time>2024-06-22T07:08:12.000Z</time>
      </trkpt>
      <trkpt lat="40.522346" lon="-105.174089">
        <ele>1713.850654</ele>
        <time>2024-06-22T07:08:33.000Z</time>
      </trkpt>
      <trkpt lat="40.521833" lon="-105.172579">
        <ele>1698.95522</ele>
        <time>2024-06-22T07:08:47.000Z</time>
      </trkpt>
      <trkpt lat="40.521327" lon="-105.171335">
        <ele>1688.904603</ele>
        <time>2024-06-22T07:08:59.000Z</time>
      </trkpt>
      <trkpt lat="40.521109" lon="-105.170946">
        <ele>1685.439376</ele>
        <time>2024-06-22T07:09:03.000Z</time>
      </trkpt>
      <trkpt lat="40.520723" lon="-105.170251">
        <ele>1680.668289</ele>
        <time>2024-06-22T07:09:10.000Z</time>
      </trkpt>
      <trkpt lat="40.520387" lon="-105.169621">
        <ele>1677.978821</ele>
        <time>2024-06-22T07:09:17.000Z</time>
      </trkpt>
      <trkpt lat="40.520007" lon="-105.168826">
        <ele>1674.601622</ele>
        <time>2024-06-22T07:09:25.000Z</time>
      </trkpt>
      <trkpt lat="40.519632" lon="-105.168527">
        <ele>1673.766027</ele>
        <time>2024-06-22T07:09:30.000Z</time>
      </trkpt>
      <trkpt lat="40.519411" lon="-105.168446">
        <ele>1673.85274</ele>
        <time>2024-06-22T07:09:33.000Z</time>
      </trkpt>
      <trkpt lat="40.519165" lon="-105.16845">
        <ele>1673.938509</ele>
        <time>2024-06-22T07:09:36.000Z</time>
      </trkpt>
      <trkpt lat="40.518625" lon="-105.168679">
        <ele>1674.151503</ele>
        <time>2024-06-22T07:09:42.000Z</time>
      </trkpt>
      <trkpt lat="40.517721" lon="-105.169073">
        <ele>1674.478217</ele>
        <time>2024-06-22T07:09:53.000Z</time>
      </trkpt>
      <trkpt lat="40.51748" lon="-105.169082">
        <ele>1674.55466</ele>
        <time>2024-06-22T07:09:56.000Z</time>
      </trkpt>
      <trkpt lat="40.517169" lon="-105.169014">
        <ele>1674.653636</ele>
        <time>2024-06-22T07:10:00.000Z</time>
      </trkpt>
      <trkpt lat="40.516619" lon="-105.168645">
        <ele>1674.848344</ele>
        <time>2024-06-22T07:10:07.000Z</time>
      </trkpt>
      <trkpt lat="40.51604" lon="-105.16826">
        <ele>1674.544281</ele>
        <time>2024-06-22T07:10:14.000Z</time>
      </trkpt>
      <trkpt lat="40.515813" lon="-105.168109">
        <ele>1674.326034</ele>
        <time>2024-06-22T07:10:17.000Z</time>
      </trkpt>
      <trkpt lat="40.514316" lon="-105.167071">
        <ele>1675.460114</ele>
        <time>2024-06-22T07:10:36.000Z</time>
      </trkpt>
      <trkpt lat="40.514199" lon="-105.166892">
        <ele>1676.061111</ele>
        <time>2024-06-22T07:10:38.000Z</time>
      </trkpt>
      <trkpt lat="40.514112" lon="-105.166638">
        <ele>1676.78364</ele>
        <time>2024-06-22T07:10:40.000Z</time>
      </trkpt>
      <trkpt lat="40.514061" lon="-105.166331">
        <ele>1677.556636</ele>
        <time>2024-06-22T07:10:43.000Z</time>
      </trkpt>
      <trkpt lat="40.514089" lon="-105.165982">
        <ele>1678.481863</ele>
        <time>2024-06-22T07:10:46.000Z</time>
      </trkpt>
      <trkpt lat="40.514188" lon="-105.16574">
        <ele>1679.179898</ele>
        <time>2024-06-22T07:10:48.000Z</time>
      </trkpt>
      <trkpt lat="40.514363" lon="-105.165466">
        <ele>1681.050933</ele>
        <time>2024-06-22T07:10:51.000Z</time>
      </trkpt>
      <trkpt lat="40.514902" lon="-105.165208">
        <ele>1686.116996</ele>
        <time>2024-06-22T07:10:57.000Z</time>
      </trkpt>
      <trkpt lat="40.516782" lon="-105.164494">
        <ele>1702.159114</ele>
        <time>2024-06-22T07:11:19.000Z</time>
      </trkpt>
      <trkpt lat="40.517082" lon="-105.164215">
        <ele>1704.920841</ele>
        <time>2024-06-22T07:11:23.000Z</time>
      </trkpt>
      <trkpt lat="40.517223" lon="-105.163843">
        <ele>1707.194321</ele>
        <time>2024-06-22T07:11:27.000Z</time>
      </trkpt>
      <trkpt lat="40.517225" lon="-105.163451">
        <ele>1709.122836</ele>
        <time>2024-06-22T07:11:30.000Z</time>
      </trkpt>
      <trkpt lat="40.51716" lon="-105.163212">
        <ele>1709.805381</ele>
        <time>2024-06-22T07:11:32.000Z</time>
      </trkpt>
      <trkpt lat="40.516662" lon="-105.162088">
        <ele>1713.574691</ele>
        <time>2024-06-22T07:11:43.000Z</time>
      </trkpt>
      <trkpt lat="40.516329" lon="-105.161579">
        <ele>1715.490582</ele>
        <time>2024-06-22T07:11:49.000Z</time>
      </trkpt>
      <trkpt lat="40.515548" lon="-105.16089">
        <ele>1718.801077</ele>
        <time>2024-06-22T07:11:59.000Z</time>
      </trkpt>
      <trkpt lat="40.515321" lon="-105.160628">
        <ele>1719.863401</ele>
        <time>2024-06-22T07:12:02.000Z</time>
      </trkpt>
      <trkpt lat="40.515174" lon="-105.160365">
        <ele>1720.711334</ele>
        <time>2024-06-22T07:12:05.000Z</time>
      </trkpt>
      <trkpt lat="40.514954" lon="-105.159826">
        <ele>1721.428341</ele>
        <time>2024-06-22T07:12:10.000Z</time>
      </trkpt>
      <trkpt lat="40.514887" lon="-105.159641">
        <ele>1721.004132</ele>
        <time>2024-06-22T07:12:12.000Z</time>
      </trkpt>
      <trkpt lat="40.514864" lon="-105.1596">
        <ele>1720.916824</ele>
        <time>2024-06-22T07:12:12.000Z</time>
      </trkpt>
      <trkpt lat="40.514665" lon="-105.159126">
        <ele>1719.831034</ele>
        <time>2024-06-22T07:12:17.000Z</time>
      </trkpt>
      <trkpt lat="40.514358" lon="-105.158691">
        <ele>1718.67647</ele>
        <time>2024-06-22T07:12:22.000Z</time>
      </trkpt>
      <trkpt lat="40.513919" lon="-105.158276">
        <ele>1717.254712</ele>
        <time>2024-06-22T07:12:28.000Z</time>
      </trkpt>
      <trkpt lat="40.50976" lon="-105.156452">
        <ele>1689.609678</ele>
        <time>2024-06-22T07:13:17.000Z</time>
      </trkpt>
      <trkpt lat="40.507926" lon="-105.156014">
        <ele>1683.956769</ele>
        <time>2024-06-22T07:13:38.000Z</time>
      </trkpt>
      <trkpt lat="40.506807" lon="-105.155603">
        <ele>1681.514155</ele>
        <time>2024-06-22T07:13:51.000Z</time>
      </trkpt>
      <trkpt lat="40.506538" lon="-105.155428">
        <ele>1680.212163</ele>
        <time>2024-06-22T07:13:54.000Z</time>
      </trkpt>
      <trkpt lat="40.506173" lon="-105.155057">
        <ele>1678.245321</ele>
        <time>2024-06-22T07:13:59.000Z</time>
      </trkpt>
      <trkpt lat="40.506137" lon="-105.155019">
        <ele>1678.015871</ele>
        <time>2024-06-22T07:14:00.000Z</time>
      </trkpt>
      <trkpt lat="40.506091" lon="-105.15495">
        <ele>1677.699394</ele>
        <time>2024-06-22T07:14:01.000Z</time>
      </trkpt>
      <trkpt lat="40.505991" lon="-105.154783">
        <ele>1677.026247</ele>
        <time>2024-06-22T07:14:03.000Z</time>
      </trkpt>
      <trkpt lat="40.505573" lon="-105.154097">
        <ele>1674.023273</ele>
        <time>2024-06-22T07:14:10.000Z</time>
      </trkpt>
      <trkpt lat="40.505143" lon="-105.153279">
        <ele>1669.700292</ele>
        <time>2024-06-22T07:14:18.000Z</time>
      </trkpt>
      <trkpt lat="40.50498" lon="-105.152655">
        <ele>1666.784394</ele>
        <time>2024-06-22T07:14:24.000Z</time>
      </trkpt>
      <trkpt lat="40.504973" lon="-105.152097">
        <ele>1664.33006</ele>
        <time>2024-06-22T07:14:29.000Z</time>
      </trkpt>
      <trkpt lat="40.505019" lon="-105.151217">
        <ele>1663.993816</ele>
        <time>2024-06-22T07:14:36.000Z</time>
      </trkpt>
      <trkpt lat="40.505084" lon="-105.150623">
        <ele>1663.971115</ele>
        <time>2024-06-22T07:14:41.000Z</time>
      </trkpt>
      <trkpt lat="40.505131" lon="-105.150236">
        <ele>1663.956173</ele>
        <time>2024-06-22T07:14:44.000Z</time>
      </trkpt>
      <trkpt lat="40.505292" lon="-105.149796">
        <ele>1663.938052</ele>
        <time>2024-06-22T07:14:48.000Z</time>
      </trkpt>
      <trkpt lat="40.505528" lon="-105.149523">
        <ele>1664.631907</ele>
        <time>2024-06-22T07:14:51.000Z</time>
      </trkpt>
      <trkpt lat="40.50579" lon="-105.149297">
        <ele>1665.454717</ele>
        <time>2024-06-22T07:14:54.000Z</time>
      </trkpt>
      <trkpt lat="40.506176" lon="-105.149168">
        <ele>1666.544572</ele>
        <time>2024-06-22T07:14:58.000Z</time>
      </trkpt>
      <trkpt lat="40.506537" lon="-105.149143">
        <ele>1667.488954</ele>
        <time>2024-06-22T07:15:02.000Z</time>
      </trkpt>
      <trkpt lat="40.507033" lon="-105.149373">
        <ele>1668.800634</ele>
        <time>2024-06-22T07:15:08.000Z</time>
      </trkpt>
      <trkpt lat="40.509113" lon="-105.150571">
        <ele>1670.882538</ele>
        <time>2024-06-22T07:15:33.000Z</time>
      </trkpt>
      <trkpt lat="40.510451" lon="-105.151204">
        <ele>1672.288353</ele>
        <time>2024-06-22T07:15:49.000Z</time>
      </trkpt>
      <trkpt lat="40.510946" lon="-105.151332">
        <ele>1672.995971</ele>
        <time>2024-06-22T07:15:55.000Z</time>
      </trkpt>
      <trkpt lat="40.512272" lon="-105.151438">
        <ele>1674.888286</ele>
        <time>2024-06-22T07:16:10.000Z</time>
      </trkpt>
      <trkpt lat="40.513694" lon="-105.151331">
        <ele>1677.034804</ele>
        <time>2024-06-22T07:16:26.000Z</time>
      </trkpt>
      <trkpt lat="40.513946" lon="-105.151252">
        <ele>1677.376836</ele>
        <time>2024-06-22T07:16:29.000Z</time>
      </trkpt>
      <trkpt lat="40.514778" lon="-105.150777">
        <ele>1678.080798</ele>
        <time>2024-06-22T07:16:39.000Z</time>
      </trkpt>
      <trkpt lat="40.51657" lon="-105.150181">
        <ele>1679.290956</ele>
        <time>2024-06-22T07:17:00.000Z</time>
      </trkpt>
      <trkpt lat="40.517126" lon="-105.149947">
        <ele>1679.61526</ele>
        <time>2024-06-22T07:17:06.000Z</time>
      </trkpt>
      <trkpt lat="40.517902" lon="-105.149517">
        <ele>1680.486079</ele>
        <time>2024-06-22T07:17:15.000Z</time>
      </trkpt>
      <trkpt lat="40.518713" lon="-105.148929">
        <ele>1681.570347</ele>
        <time>2024-06-22T07:17:25.000Z</time>
      </trkpt>
      <trkpt lat="40.519468" lon="-105.148415">
        <ele>1682.42938</ele>
        <time>2024-06-22T07:17:34.000Z</time>
      </trkpt>
      <trkpt lat="40.521539" lon="-105.147123">
        <ele>1684.846707</ele>
        <time>2024-06-22T07:17:59.000Z</time>
      </trkpt>
      <trkpt lat="40.522502" lon="-105.14624">
        <ele>1686.370836</ele>
        <time>2024-06-22T07:18:12.000Z</time>
      </trkpt>
      <trkpt lat="40.523665" lon="-105.145613">
        <ele>1688.30185</ele>
        <time>2024-06-22T07:18:26.000Z</time>
      </trkpt>
      <trkpt lat="40.524241" lon="-105.145158">
        <ele>1688.291099</ele>
        <time>2024-06-22T07:18:33.000Z</time>
      </trkpt>
      <trkpt lat="40.526667" lon="-105.144255">
        <ele>1686.896809</ele>
        <time>2024-06-22T07:19:01.000Z</time>
      </trkpt>
      <trkpt lat="40.527297" lon="-105.143782">
        <ele>1685.394366</ele>
        <time>2024-06-22T07:19:09.000Z</time>
      </trkpt>
      <trkpt lat="40.527742" lon="-105.143296">
        <ele>1683.200615</ele>
        <time>2024-06-22T07:19:15.000Z</time>
      </trkpt>
      <trkpt lat="40.52796" lon="-105.142844">
        <ele>1681.70662</ele>
        <time>2024-06-22T07:19:20.000Z</time>
      </trkpt>
      <trkpt lat="40.528433" lon="-105.141062">
        <ele>1671.910853</ele>
        <time>2024-06-22T07:19:36.000Z</time>
      </trkpt>
      <trkpt lat="40.528496" lon="-105.140718">
        <ele>1669.672133</ele>
        <time>2024-06-22T07:19:39.000Z</time>
      </trkpt>
      <trkpt lat="40.528422" lon="-105.139726">
        <ele>1663.017753</ele>
        <time>2024-06-22T07:19:47.000Z</time>
      </trkpt>
      <trkpt lat="40.52844" lon="-105.139461">
        <ele>1660.938618</ele>
        <time>2024-06-22T07:19:49.000Z</time>
      </trkpt>
      <trkpt lat="40.528692" lon="-105.138674">
        <ele>1654.194019</ele>
        <time>2024-06-22T07:19:56.000Z</time>
      </trkpt>
      <trkpt lat="40.528752" lon="-105.138493">
        <ele>1652.659219</ele>
        <time>2024-06-22T07:19:58.000Z</time>
      </trkpt>
      <trkpt lat="40.528743" lon="-105.138345">
        <ele>1651.495926</ele>
        <time>2024-06-22T07:19:59.000Z</time>
      </trkpt>
      <trkpt lat="40.528736" lon="-105.138215">
        <ele>1650.464686</ele>
        <time>2024-06-22T07:20:00.000Z</time>
      </trkpt>
      <trkpt lat="40.528697" lon="-105.138079">
        <ele>1649.416423</ele>
        <time>2024-06-22T07:20:01.000Z</time>
      </trkpt>
      <trkpt lat="40.528628" lon="-105.137988">
        <ele>1648.37964</ele>
        <time>2024-06-22T07:20:02.000Z</time>
      </trkpt>
      <trkpt lat="40.528557" lon="-105.137884">
        <ele>1647.351689</ele>
        <time>2024-06-22T07:20:03.000Z</time>
      </trkpt>
      <trkpt lat="40.52471" lon="-105.136475">
        <ele>1620.043021</ele>
        <time>2024-06-22T07:20:47.000Z</time>
      </trkpt>
      <trkpt lat="40.524452" lon="-105.136315">
        <ele>1618.560901</ele>
        <time>2024-06-22T07:20:50.000Z</time>
      </trkpt>
      <trkpt lat="40.524335" lon="-105.136064">
        <ele>1617.428486</ele>
        <time>2024-06-22T07:20:52.000Z</time>
      </trkpt>
      <trkpt lat="40.524322" lon="-105.135781">
        <ele>1616.261507</ele>
        <time>2024-06-22T07:20:54.000Z</time>
      </trkpt>
      <trkpt lat="40.524362" lon="-105.135591">
        <ele>1615.491582</ele>
        <time>2024-06-22T07:20:56.000Z</time>
      </trkpt>
      <trkpt lat="40.524531" lon="-105.135368">
        <ele>1614.252673</ele>
        <time>2024-06-22T07:20:59.000Z</time>
      </trkpt>
      <trkpt lat="40.526112" lon="-105.135055">
        <ele>1605.990396</ele>
        <time>2024-06-22T07:21:17.000Z</time>
      </trkpt>
      <trkpt lat="40.526796" lon="-105.13494">
        <ele>1602.391604</ele>
        <time>2024-06-22T07:21:25.000Z</time>
      </trkpt>
      <trkpt lat="40.52847" lon="-105.134636">
        <ele>1595.046092</ele>
        <time>2024-06-22T07:21:44.000Z</time>
      </trkpt>
      <trkpt lat="40.528758" lon="-105.134577">
        <ele>1594.084669</ele>
        <time>2024-06-22T07:21:47.000Z</time>
      </trkpt>
      <trkpt lat="40.529344" lon="-105.134452">
        <ele>1592.346756</ele>
        <time>2024-06-22T07:21:54.000Z</time>
      </trkpt>
      <trkpt lat="40.52973" lon="-105.134218">
        <ele>1591.106868</ele>
        <time>2024-06-22T07:21:59.000Z</time>
      </trkpt>
      <trkpt lat="40.529894" lon="-105.134021">
        <ele>1590.449153</ele>
        <time>2024-06-22T07:22:01.000Z</time>
      </trkpt>
      <trkpt lat="40.530123" lon="-105.133652">
        <ele>1589.408574</ele>
        <time>2024-06-22T07:22:05.000Z</time>
      </trkpt>
      <trkpt lat="40.530257" lon="-105.133233">
        <ele>1588.656</ele>
        <time>2024-06-22T07:22:09.000Z</time>
      </trkpt>
      <trkpt lat="40.5303" lon="-105.13298">
        <ele>1588.197216</ele>
        <time>2024-06-22T07:22:11.000Z</time>
      </trkpt>
      <trkpt lat="40.530378" lon="-105.131848">
        <ele>1586.313049</ele>
        <time>2024-06-22T07:22:21.000Z</time>
      </trkpt>
      <trkpt lat="40.530437" lon="-105.130901">
        <ele>1584.712326</ele>
        <time>2024-06-22T07:22:29.000Z</time>
      </trkpt>
      <trkpt lat="40.5305" lon="-105.130076">
        <ele>1583.319027</ele>
        <time>2024-06-22T07:22:36.000Z</time>
      </trkpt>
      <trkpt lat="40.530554" lon="-105.129389">
        <ele>1582.119892</ele>
        <time>2024-06-22T07:22:42.000Z</time>
      </trkpt>
      <trkpt lat="40.530554" lon="-105.129345">
        <ele>1582.042604</ele>
        <time>2024-06-22T07:22:42.000Z</time>
      </trkpt>
      <trkpt lat="40.530576" lon="-105.128993">
        <ele>1581.457325</ele>
        <time>2024-06-22T07:22:45.000Z</time>
      </trkpt>
      <trkpt lat="40.530568" lon="-105.12898">
        <ele>1581.416543</ele>
        <time>2024-06-22T07:22:45.000Z</time>
      </trkpt>
      <trkpt lat="40.530685" lon="-105.127277">
        <ele>1578.527222</ele>
        <time>2024-06-22T07:22:59.000Z</time>
      </trkpt>
      <trkpt lat="40.530685" lon="-105.127129">
        <ele>1578.263787</ele>
        <time>2024-06-22T07:23:00.000Z</time>
      </trkpt>
      <trkpt lat="40.53078" lon="-105.126079">
        <ele>1577.095787</ele>
        <time>2024-06-22T07:23:09.000Z</time>
      </trkpt>
      <trkpt lat="40.530808" lon="-105.125754">
        <ele>1576.87259</ele>
        <time>2024-06-22T07:23:12.000Z</time>
      </trkpt>
      <trkpt lat="40.530858" lon="-105.124979">
        <ele>1576.361925</ele>
        <time>2024-06-22T07:23:19.000Z</time>
      </trkpt>
      <trkpt lat="40.530878" lon="-105.122903">
        <ele>1575.32537</ele>
        <time>2024-06-22T07:23:37.000Z</time>
      </trkpt>
      <trkpt lat="40.530885" lon="-105.119552">
        <ele>1572.957285</ele>
        <time>2024-06-22T07:24:05.000Z</time>
      </trkpt>
      <trkpt lat="40.530888" lon="-105.118572">
        <ele>1572.017097</ele>
        <time>2024-06-22T07:24:13.000Z</time>
      </trkpt>
      <trkpt lat="40.5309" lon="-105.118495">
        <ele>1571.944254</ele>
        <time>2024-06-22T07:24:14.000Z</time>
      </trkpt>
      <trkpt lat="40.530892" lon="-105.118254">
        <ele>1571.707276</ele>
        <time>2024-06-22T07:24:16.000Z</time>
      </trkpt>
      <trkpt lat="40.530892" lon="-105.118179">
        <ele>1571.63152</ele>
        <time>2024-06-22T07:24:17.000Z</time>
      </trkpt>
      <trkpt lat="40.530898" lon="-105.117531">
        <ele>1570.994372</ele>
        <time>2024-06-22T07:24:22.000Z</time>
      </trkpt>
      <trkpt lat="40.530902" lon="-105.117098">
        <ele>1570.622716</ele>
        <time>2024-06-22T07:24:26.000Z</time>
      </trkpt>
      <trkpt lat="40.530906" lon="-105.116425">
        <ele>1570.174421</ele>
        <time>2024-06-22T07:24:32.000Z</time>
      </trkpt>
      <trkpt lat="40.530907" lon="-105.116279">
        <ele>1570.085164</ele>
        <time>2024-06-22T07:24:33.000Z</time>
      </trkpt>
      <trkpt lat="40.530902" lon="-105.115327">
        <ele>1569.45571</ele>
        <time>2024-06-22T07:24:41.000Z</time>
      </trkpt>
      <trkpt lat="40.530912" lon="-105.11513">
        <ele>1569.33297</ele>
        <time>2024-06-22T07:24:43.000Z</time>
      </trkpt>
      <trkpt lat="40.530787" lon="-105.115134">
        <ele>1569.219858</ele>
        <time>2024-06-22T07:24:44.000Z</time>
      </trkpt>
      <trkpt lat="40.530309" lon="-105.115135">
        <ele>1569.013872</ele>
        <time>2024-06-22T07:24:49.000Z</time>
      </trkpt>
      <trkpt lat="40.530208" lon="-105.115134">
        <ele>1568.977962</ele>
        <time>2024-06-22T07:24:50.000Z</time>
      </trkpt>
      <trkpt lat="40.528392" lon="-105.115111">
        <ele>1567.296604</ele>
        <time>2024-06-22T07:25:10.000Z</time>
      </trkpt>
      <trkpt lat="40.523742" lon="-105.11511">
        <ele>1555.33875</ele>
        <time>2024-06-22T07:26:02.000Z</time>
      </trkpt>
      <trkpt lat="40.523521" lon="-105.115127">
        <ele>1554.684502</ele>
        <time>2024-06-22T07:26:04.000Z</time>
      </trkpt>
      <trkpt lat="40.522975" lon="-105.11513">
        <ele>1554.741153</ele>
        <time>2024-06-22T07:26:10.000Z</time>
      </trkpt>
      <trkpt lat="40.504877" lon="-105.115282">
        <ele>1557.418361</ele>
        <time>2024-06-22T07:29:31.000Z</time>
      </trkpt>
      <trkpt lat="40.50147" lon="-105.115317">
        <ele>1552.0766</ele>
        <time>2024-06-22T07:30:09.000Z</time>
      </trkpt>
      <trkpt lat="40.494417" lon="-105.115609">
        <ele>1561.761499</ele>
        <time>2024-06-22T07:31:27.000Z</time>
      </trkpt>
      <trkpt lat="40.480088" lon="-105.11565">
        <ele>1561.861913</ele>
        <time>2024-06-22T07:34:06.000Z</time>
      </trkpt>
      <trkpt lat="40.479966" lon="-105.115652">
        <ele>1562.062169</ele>
        <time>2024-06-22T07:34:07.000Z</time>
      </trkpt>
      <trkpt lat="40.476416" lon="-105.115631">
        <ele>1568.315331</ele>
        <time>2024-06-22T07:34:46.000Z</time>
      </trkpt>
      <trkpt lat="40.469436" lon="-105.115599">
        <ele>1568.654247</ele>
        <time>2024-06-22T07:36:04.000Z</time>
      </trkpt>
      <trkpt lat="40.458412" lon="-105.115575">
        <ele>1566.22043</ele>
        <time>2024-06-22T07:38:07.000Z</time>
      </trkpt>
      <trkpt lat="40.450975" lon="-105.11555">
        <ele>1566.420116</ele>
        <time>2024-06-22T07:39:30.000Z</time>
      </trkpt>
      <trkpt lat="40.446424" lon="-105.115528">
        <ele>1565.439099</ele>
        <time>2024-06-22T07:40:21.000Z</time>
      </trkpt>
      <trkpt lat="40.44374" lon="-105.115497">
        <ele>1565.376634</ele>
        <time>2024-06-22T07:40:51.000Z</time>
      </trkpt>
      <trkpt lat="40.44004" lon="-105.115491">
        <ele>1563.222241</ele>
        <time>2024-06-22T07:41:32.000Z</time>
      </trkpt>
      <trkpt lat="40.437206" lon="-105.115475">
        <ele>1560.49074</ele>
        <time>2024-06-22T07:42:04.000Z</time>
      </trkpt>
      <trkpt lat="40.436615" lon="-105.115485">
        <ele>1559.927932</ele>
        <time>2024-06-22T07:42:11.000Z</time>
      </trkpt>
      <trkpt lat="40.436484" lon="-105.115479">
        <ele>1559.796756</ele>
        <time>2024-06-22T07:42:12.000Z</time>
      </trkpt>
      <trkpt lat="40.436378" lon="-105.115483">
        <ele>1559.688723</ele>
        <time>2024-06-22T07:42:13.000Z</time>
      </trkpt>
      <trkpt lat="40.434312" lon="-105.115482">
        <ele>1558.346901</ele>
        <time>2024-06-22T07:42:36.000Z</time>
      </trkpt>
      <trkpt lat="40.432396" lon="-105.115507">
        <ele>1558.70312</ele>
        <time>2024-06-22T07:42:57.000Z</time>
      </trkpt>
      <trkpt lat="40.431909" lon="-105.115503">
        <ele>1558.962667</ele>
        <time>2024-06-22T07:43:02.000Z</time>
      </trkpt>
      <trkpt lat="40.430524" lon="-105.115538">
        <ele>1559.869888</ele>
        <time>2024-06-22T07:43:17.000Z</time>
      </trkpt>
      <trkpt lat="40.429684" lon="-105.115564">
        <ele>1560.234842</ele>
        <time>2024-06-22T07:43:26.000Z</time>
      </trkpt>
      <trkpt lat="40.428119" lon="-105.115602">
        <ele>1560.212082</ele>
        <time>2024-06-22T07:43:43.000Z</time>
      </trkpt>
      <trkpt lat="40.42803" lon="-105.115598">
        <ele>1560.172407</ele>
        <time>2024-06-22T07:43:44.000Z</time>
      </trkpt>
      <trkpt lat="40.426708" lon="-105.115601">
        <ele>1559.654379</ele>
        <time>2024-06-22T07:43:59.000Z</time>
      </trkpt>
      <trkpt lat="40.425043" lon="-105.11563">
        <ele>1559.299982</ele>
        <time>2024-06-22T07:44:18.000Z</time>
      </trkpt>
      <trkpt lat="40.423157" lon="-105.115627">
        <ele>1559.305087</ele>
        <time>2024-06-22T07:44:39.000Z</time>
      </trkpt>
      <trkpt lat="40.423041" lon="-105.115635">
        <ele>1559.311181</ele>
        <time>2024-06-22T07:44:40.000Z</time>
      </trkpt>
      <trkpt lat="40.422793" lon="-105.115628">
        <ele>1559.32501</ele>
        <time>2024-06-22T07:44:43.000Z</time>
      </trkpt>
      <trkpt lat="40.421906" lon="-105.11563">
        <ele>1558.442401</ele>
        <time>2024-06-22T07:44:53.000Z</time>
      </trkpt>
      <trkpt lat="40.421888" lon="-105.113867">
        <ele>1556.724094</ele>
        <time>2024-06-22T07:45:08.000Z</time>
      </trkpt>
      <trkpt lat="40.421881" lon="-105.113371">
        <ele>1556.02946</ele>
        <time>2024-06-22T07:45:12.000Z</time>
      </trkpt>
      <trkpt lat="40.421879" lon="-105.11281">
        <ele>1555.255011</ele>
        <time>2024-06-22T07:45:17.000Z</time>
      </trkpt>
      <trkpt lat="40.421867" lon="-105.112725">
        <ele>1555.141558</ele>
        <time>2024-06-22T07:45:18.000Z</time>
      </trkpt>
      <trkpt lat="40.421873" lon="-105.112299">
        <ele>1554.542155</ele>
        <time>2024-06-22T07:45:22.000Z</time>
      </trkpt>
      <trkpt lat="40.421852" lon="-105.111588">
        <ele>1553.207429</ele>
        <time>2024-06-22T07:45:28.000Z</time>
      </trkpt>
      <trkpt lat="40.421851" lon="-105.111554">
        <ele>1553.119763</ele>
        <time>2024-06-22T07:45:28.000Z</time>
      </trkpt>
      <trkpt lat="40.421853" lon="-105.11116">
        <ele>1552.270737</ele>
        <time>2024-06-22T07:45:31.000Z</time>
      </trkpt>
      <trkpt lat="40.42184" lon="-105.110893">
        <ele>1551.697601</ele>
        <time>2024-06-22T07:45:33.000Z</time>
      </trkpt>
      <trkpt lat="40.421845" lon="-105.110386">
        <ele>1550.632563</ele>
        <time>2024-06-22T07:45:37.000Z</time>
      </trkpt>
      <trkpt lat="40.421812" lon="-105.107804">
        <ele>1544.767688</ele>
        <time>2024-06-22T07:45:59.000Z</time>
      </trkpt>
      <trkpt lat="40.421784" lon="-105.105026">
        <ele>1540.002114</ele>
        <time>2024-06-22T07:46:23.000Z</time>
      </trkpt>
      <trkpt lat="40.421777" lon="-105.10494">
        <ele>1539.906592</ele>
        <time>2024-06-22T07:46:24.000Z</time>
      </trkpt>
      <trkpt lat="40.421745" lon="-105.102966">
        <ele>1538.690594</ele>
        <time>2024-06-22T07:46:41.000Z</time>
      </trkpt>
      <trkpt lat="40.421736" lon="-105.102192">
        <ele>1538.463934</ele>
        <time>2024-06-22T07:46:48.000Z</time>
      </trkpt>
      <trkpt lat="40.421743" lon="-105.100711">
        <ele>1538.453504</ele>
        <time>2024-06-22T07:47:01.000Z</time>
      </trkpt>
      <trkpt lat="40.421724" lon="-105.099777">
        <ele>1537.932145</ele>
        <time>2024-06-22T07:47:09.000Z</time>
      </trkpt>
      <trkpt lat="40.421726" lon="-105.099662">
        <ele>1537.797053</ele>
        <time>2024-06-22T07:47:10.000Z</time>
      </trkpt>
      <trkpt lat="40.421715" lon="-105.098989">
        <ele>1537.040119</ele>
        <time>2024-06-22T07:47:16.000Z</time>
      </trkpt>
      <trkpt lat="40.421715" lon="-105.098034">
        <ele>1535.973933</ele>
        <time>2024-06-22T07:47:24.000Z</time>
      </trkpt>
      <trkpt lat="40.421704" lon="-105.096804">
        <ele>1534.28355</ele>
        <time>2024-06-22T07:47:34.000Z</time>
      </trkpt>
      <trkpt lat="40.421709" lon="-105.095988">
        <ele>1533.127401</ele>
        <time>2024-06-22T07:47:41.000Z</time>
      </trkpt>
      <trkpt lat="40.421706" lon="-105.095097">
        <ele>1532.18045146</ele>
        <time>2024-06-22T07:47:49.000Z</time>
      </trkpt>
      <trkpt lat="40.421695" lon="-105.094452">
        <ele>1531.49478391</ele>
        <time>2024-06-22T07:47:54.000Z</time>
      </trkpt>
      <trkpt lat="40.421689" lon="-105.092604">
        <ele>1529.53074131</ele>
        <time>2024-06-22T07:48:10.000Z</time>
      </trkpt>
      <trkpt lat="40.421681" lon="-105.092606">
        <ele>1529.51937264</ele>
        <time>2024-06-22T07:48:10.000Z</time>
      </trkpt>
      <trkpt lat="40.421672" lon="-105.092594">
        <ele>1529.50146987</ele>
        <time>2024-06-22T07:48:10.000Z</time>
      </trkpt>
    </trkseg>
  </trk>
</gpx>

<!--
Performance optimized by W3 Total Cache. Learn more: https://www.boldgrid.com/w3-total-cache/?utm_source=w3tc&utm_medium=footer_comment&utm_campaign=free_plugin

Page Caching using Disk: Enhanced{w3tc_pagecache_reject_reason} 

Served from: www.aquabike.world @ 2026-05-10 19:19:03 by W3 Total Cache
-->